createdAt,value
2023-02-02T00:00:56.872Z,93.06
2023-02-02T00:03:23.484Z,92.68
2023-02-02T00:05:52.744Z,93.03
2023-02-02T00:08:21.025Z,92.66
2023-02-02T00:10:47.875Z,93.19
2023-02-02T00:13:14.675Z,93.33
2023-02-02T00:15:41.018Z,94.01
2023-02-02T00:18:07.557Z,94.58
2023-02-02T00:20:37.118Z,93.97
2023-02-02T00:23:04.258Z,94.26
2023-02-02T00:25:31.160Z,93.71
2023-02-02T00:27:57.750Z,94.14
2023-02-02T00:30:24.453Z,94.23
2023-02-02T00:32:52.962Z,94.36
2023-02-02T00:35:19.682Z,94.29
2023-02-02T00:37:46.050Z,94.41
2023-02-02T00:40:12.601Z,94.01
2023-02-02T00:42:39.045Z,93.92
2023-02-02T00:45:18.135Z,93.95
2023-02-02T00:47:49.406Z,94.44
2023-02-02T00:50:20.791Z,95.22
2023-02-02T00:52:48.516Z,95.85
2023-02-02T00:55:15.781Z,95.93
2023-02-02T00:57:44.262Z,95.52
2023-02-02T01:00:16.874Z,95.20
2023-02-02T01:02:43.778Z,94.38
2023-02-02T01:05:12.108Z,95.17
2023-02-02T01:07:39.560Z,94.62
2023-02-02T01:10:08.911Z,95.65
2023-02-02T01:12:35.375Z,96.41
2023-02-02T01:15:02.717Z,95.80
2023-02-02T01:17:29.314Z,96.46
2023-02-02T01:19:55.816Z,95.29
2023-02-02T01:22:22.322Z,95.33
2023-02-02T01:24:48.782Z,95.78
2023-02-02T01:27:15.305Z,95.92
2023-02-02T01:29:41.906Z,95.11
2023-02-02T01:32:08.356Z,95.97
2023-02-02T01:34:34.895Z,95.76
2023-02-02T01:37:01.406Z,95.48
2023-02-02T01:39:27.827Z,96.48
2023-02-02T01:41:54.309Z,96.38
2023-02-02T01:44:58.322Z,96.36
2023-02-02T01:47:34.151Z,96.00
2023-02-02T01:50:00.974Z,95.88
2023-02-02T01:52:30.297Z,95.88
2023-02-02T01:55:00.147Z,96.13
2023-02-02T01:57:40.774Z,96.15
2023-02-02T02:00:10.915Z,96.62
2023-02-02T02:02:39.680Z,96.24
2023-02-02T02:05:08.152Z,96.11
2023-02-02T02:07:34.730Z,95.65
2023-02-02T02:10:01.224Z,96.46
2023-02-02T02:12:27.707Z,95.29
2023-02-02T02:15:12.793Z,95.43
2023-02-02T02:17:42.152Z,96.11
2023-02-02T02:20:49.279Z,96.38
2023-02-02T02:23:58.969Z,96.63
2023-02-02T02:26:56.681Z,96.48
2023-02-02T02:29:41.811Z,96.43
2023-02-02T02:32:34.220Z,96.17
2023-02-02T02:35:13.923Z,95.96
2023-02-02T02:37:58.629Z,96.26
2023-02-02T02:40:54.841Z,96.35
2023-02-02T02:43:29.679Z,96.26
2023-02-02T02:45:56.667Z,95.71
2023-02-02T02:48:23.230Z,95.01
2023-02-02T02:50:50.032Z,95.51
2023-02-02T02:53:19.861Z,95.66
2023-02-02T02:56:00.109Z,95.46
2023-02-02T02:58:32.603Z,95.98
2023-02-02T03:01:07.584Z,95.53
2023-02-02T03:03:48.971Z,95.96
2023-02-02T03:06:23.223Z,96.22
2023-02-02T03:09:01.172Z,96.75
2023-02-02T03:11:28.148Z,97.85
2023-02-02T03:13:55.545Z,97.54
2023-02-02T03:16:22.217Z,97.77
2023-02-02T03:18:48.719Z,98.57
2023-02-02T03:21:15.122Z,98.66
2023-02-02T03:23:41.615Z,98.40
2023-02-02T03:26:08.244Z,98.54
2023-02-02T03:28:35.164Z,98.43
2023-02-02T03:31:02.346Z,98.29
2023-02-02T03:33:30.673Z,98.83
2023-02-02T03:35:57.054Z,98.25
2023-02-02T03:38:23.466Z,98.85
2023-02-02T03:40:51.214Z,99.31
2023-02-02T03:43:24.749Z,98.96
2023-02-02T03:45:58.861Z,98.69
2023-02-02T03:48:26.072Z,99.00
2023-02-02T03:50:52.844Z,99.01
2023-02-02T03:53:19.710Z,99.27
2023-02-02T03:55:46.194Z,99.62
2023-02-02T03:58:12.636Z,99.83
2023-02-02T04:00:39.003Z,99.44
2023-02-02T04:03:05.873Z,99.91
2023-02-02T04:05:32.482Z,99.59
2023-02-02T04:07:58.954Z,99.39
2023-02-02T04:10:25.578Z,98.53
2023-02-02T04:12:51.957Z,98.13
2023-02-02T04:15:18.348Z,99.09
2023-02-02T04:17:44.819Z,98.57
2023-02-02T04:20:11.749Z,97.86
2023-02-02T04:22:38.203Z,97.76
2023-02-02T04:25:04.960Z,97.37
2023-02-02T04:27:34.073Z,97.28
2023-02-02T04:30:00.750Z,96.92
2023-02-02T04:32:27.157Z,97.18
2023-02-02T04:34:53.670Z,96.31
2023-02-02T04:37:20.133Z,96.27
2023-02-02T04:39:46.628Z,96.55
2023-02-02T04:42:12.998Z,95.94
2023-02-02T04:44:39.902Z,96.22
2023-02-02T04:47:06.395Z,96.61
2023-02-02T04:49:32.870Z,96.37
2023-02-02T04:51:59.268Z,96.51
2023-02-02T04:54:25.702Z,96.60
2023-02-02T04:56:52.138Z,96.35
2023-02-02T04:59:18.538Z,96.77
2023-02-02T05:01:45.007Z,96.75
2023-02-02T05:04:11.908Z,96.57
2023-02-02T05:06:38.467Z,96.62
2023-02-02T05:09:04.992Z,97.05
2023-02-02T05:11:31.453Z,97.04
2023-02-02T05:13:57.911Z,97.45
2023-02-02T05:16:25.940Z,97.93
2023-02-02T05:18:56.869Z,97.67
2023-02-02T05:21:23.712Z,97.83
2023-02-02T05:23:50.266Z,97.80
2023-02-02T05:26:22.025Z,97.43
2023-02-02T05:28:48.623Z,97.80
2023-02-02T05:31:16.467Z,97.62
2023-02-02T05:33:42.928Z,97.35
2023-02-02T05:36:09.914Z,97.79
2023-02-02T05:38:36.421Z,98.25
2023-02-02T05:41:03.234Z,98.31
2023-02-02T05:43:31.794Z,97.24
2023-02-02T05:45:58.412Z,98.31
2023-02-02T05:48:26.388Z,98.34
2023-02-02T05:51:16.427Z,97.81
2023-02-02T05:53:44.986Z,98.11
2023-02-02T05:56:12.583Z,98.19
2023-02-02T05:58:39.067Z,98.37
2023-02-02T06:01:05.710Z,97.99
2023-02-02T06:03:32.251Z,98.43
2023-02-02T06:05:58.791Z,98.27
2023-02-02T06:08:25.454Z,98.05
2023-02-02T06:10:51.890Z,99.07
2023-02-02T06:13:18.406Z,98.75
2023-02-02T06:15:44.869Z,99.37
2023-02-02T06:18:11.354Z,99.76
2023-02-02T06:20:38.183Z,98.86
2023-02-02T06:23:05.606Z,99.68
2023-02-02T06:25:34.217Z,99.22
2023-02-02T06:28:01.321Z,98.74
2023-02-02T06:30:28.352Z,98.53
2023-02-02T06:32:54.865Z,98.84
2023-02-02T06:35:21.520Z,98.10
2023-02-02T06:37:49.104Z,97.97
2023-02-02T06:40:15.634Z,97.40
2023-02-02T06:42:42.127Z,97.12
2023-02-02T06:45:09.246Z,96.73
2023-02-02T06:47:35.822Z,96.89
2023-02-02T06:50:02.557Z,97.10
2023-02-02T06:52:29.090Z,96.61
2023-02-02T06:54:55.563Z,96.04
2023-02-02T06:57:22.037Z,96.03
2023-02-02T06:59:48.548Z,95.84
2023-02-02T07:02:15.106Z,95.42
2023-02-02T07:04:41.514Z,95.32
2023-02-02T07:07:07.963Z,95.12
2023-02-02T07:09:35.532Z,95.08
2023-02-02T07:12:02.070Z,94.73
2023-02-02T07:14:28.591Z,94.57
2023-02-02T07:16:55.006Z,94.79
2023-02-02T07:19:21.663Z,94.44
2023-02-02T07:21:48.104Z,93.99
2023-02-02T07:24:14.603Z,94.43
2023-02-02T07:26:41.091Z,93.96
2023-02-02T07:29:07.683Z,93.53
2023-02-02T07:31:36.292Z,94.17
2023-02-02T07:34:03.450Z,94.16
2023-02-02T07:36:29.967Z,94.28
2023-02-02T07:38:59.725Z,93.42
2023-02-02T07:41:26.250Z,93.74
2023-02-02T07:43:52.933Z,94.13
2023-02-02T07:46:21.033Z,93.70
2023-02-02T07:48:47.904Z,93.62
2023-02-02T07:51:16.950Z,93.31
2023-02-02T07:53:54.497Z,93.11
2023-02-02T07:56:23.955Z,92.89
2023-02-02T07:58:52.767Z,93.32
2023-02-02T08:01:20.526Z,92.97
2023-02-02T08:03:47.123Z,92.59
2023-02-02T08:06:17.881Z,92.09
2023-02-02T08:08:44.422Z,92.04
2023-02-02T08:11:12.612Z,91.56
2023-02-02T08:13:39.926Z,92.27
2023-02-02T08:16:07.427Z,92.04
2023-02-02T08:18:34.977Z,91.72
2023-02-02T08:21:02.758Z,91.65
2023-02-02T08:23:29.736Z,91.93
2023-02-02T08:26:06.006Z,91.11
2023-02-02T08:28:32.484Z,91.04
2023-02-02T08:31:04.629Z,90.90
2023-02-02T08:33:31.034Z,91.06
2023-02-02T08:35:57.543Z,90.77
2023-02-02T08:38:25.090Z,90.21
2023-02-02T08:40:51.592Z,90.59
2023-02-02T08:43:18.008Z,90.05
2023-02-02T08:46:01.606Z,90.48
2023-02-02T08:48:30.874Z,89.33
2023-02-02T08:50:58.939Z,89.36
2023-02-02T08:53:26.429Z,89.03
2023-02-02T08:56:10.968Z,89.42
2023-02-02T08:58:37.744Z,89.52
2023-02-02T09:01:11.675Z,89.22
2023-02-02T09:03:40.246Z,88.78
2023-02-02T09:06:08.952Z,89.05
2023-02-02T09:08:35.813Z,89.15
2023-02-02T09:11:10.463Z,88.71
2023-02-02T09:13:38.564Z,88.39
2023-02-02T09:16:08.491Z,88.44
2023-02-02T09:18:35.091Z,88.25
2023-02-02T09:21:04.887Z,88.80
2023-02-02T09:23:32.993Z,88.98
2023-02-02T09:26:13.454Z,88.16
2023-02-02T09:28:41.908Z,87.92
2023-02-02T09:31:08.956Z,87.76
2023-02-02T09:33:36.328Z,87.63
2023-02-02T09:36:08.852Z,87.61
2023-02-02T09:38:35.903Z,87.86
2023-02-02T09:41:25.658Z,87.87
2023-02-02T09:44:13.420Z,87.18
2023-02-02T09:47:06.647Z,87.16
2023-02-02T09:49:57.779Z,87.09
2023-02-02T09:52:30.376Z,86.68
2023-02-02T09:55:04.703Z,86.92
2023-02-02T09:57:41.090Z,87.19
2023-02-02T10:00:29.721Z,87.86
2023-02-02T10:03:02.735Z,87.56
2023-02-02T10:05:40.681Z,88.29
2023-02-02T10:08:11.469Z,89.26
2023-02-02T10:10:43.485Z,89.80
2023-02-02T10:13:16.146Z,90.57
2023-02-02T10:15:50.842Z,91.13
2023-02-02T10:18:34.683Z,91.32
2023-02-02T10:21:04.299Z,91.20
2023-02-02T10:23:35.568Z,90.26
2023-02-02T10:26:13.924Z,89.53
2023-02-02T10:29:18.973Z,88.79
2023-02-02T10:32:22.370Z,87.59
2023-02-02T10:35:14.021Z,87.82
2023-02-02T10:37:59.418Z,88.07
2023-02-02T10:40:44.443Z,86.71
2023-02-02T10:43:48.766Z,86.31
2023-02-02T10:46:39.314Z,87.68
2023-02-02T10:49:18.066Z,86.68
2023-02-02T10:52:13.774Z,86.55
2023-02-02T10:55:00.011Z,86.32
2023-02-02T10:58:04.944Z,85.56
2023-02-02T11:00:50.567Z,84.05
2023-02-02T11:03:20.092Z,83.45
2023-02-02T11:06:05.336Z,83.83
2023-02-02T11:08:35.853Z,84.05
2023-02-02T11:11:24.457Z,84.11
2023-02-02T11:14:09.761Z,84.07
2023-02-02T11:16:43.304Z,83.88
2023-02-02T11:19:16.705Z,83.83
2023-02-02T11:21:48.576Z,84.23
2023-02-02T11:24:21.857Z,83.92
2023-02-02T11:26:58.861Z,84.37
2023-02-02T11:29:37.148Z,84.10
2023-02-02T11:32:27.720Z,82.80
2023-02-02T11:35:06.500Z,81.89
2023-02-02T11:37:37.725Z,83.02
2023-02-02T11:40:24.335Z,82.17
2023-02-02T11:42:52.067Z,82.10
2023-02-02T11:45:24.307Z,82.68
2023-02-02T11:47:51.769Z,82.25
2023-02-02T11:50:26.539Z,81.81
2023-02-02T11:52:53.430Z,81.91
2023-02-02T11:55:29.025Z,82.46
2023-02-02T11:58:18.875Z,81.92
2023-02-02T12:00:50.182Z,82.35
2023-02-02T12:03:47.807Z,81.91
2023-02-02T12:06:35.910Z,81.69
2023-02-02T12:09:12.286Z,80.34
2023-02-02T12:11:41.666Z,79.47
2023-02-02T12:14:17.196Z,79.80
2023-02-02T12:16:53.392Z,80.00
2023-02-02T12:19:25.643Z,79.36
2023-02-02T12:22:08.920Z,79.58
2023-02-02T12:25:15.951Z,79.51
2023-02-02T12:28:02.676Z,79.29
2023-02-02T12:30:48.167Z,79.30
2023-02-02T12:33:20.614Z,79.93
2023-02-02T12:35:56.097Z,79.98
2023-02-02T12:38:34.600Z,80.48
2023-02-02T12:41:39.919Z,80.57
2023-02-02T12:44:25.327Z,79.84
2023-02-02T12:47:22.274Z,80.53
2023-02-02T12:50:33.673Z,80.29
2023-02-02T12:53:07.085Z,80.44
2023-02-02T12:55:47.060Z,79.50
2023-02-02T12:58:40.864Z,79.91
2023-02-02T13:01:21.257Z,80.28
2023-02-02T13:03:53.873Z,80.70
2023-02-02T13:06:42.392Z,80.87
2023-02-02T13:09:26.735Z,81.00
2023-02-02T13:12:02.983Z,82.29
2023-02-02T13:14:34.565Z,82.09
2023-02-02T13:17:09.448Z,83.43
2023-02-02T13:19:41.003Z,83.02
2023-02-02T13:22:38.143Z,83.48
2023-02-02T13:25:09.825Z,83.79
2023-02-02T13:27:38.317Z,84.00
2023-02-02T13:30:22.877Z,84.40
2023-02-02T13:32:53.166Z,84.12
2023-02-02T13:35:29.346Z,84.11
2023-02-02T13:38:01.024Z,83.70
2023-02-02T13:40:40.262Z,84.14
2023-02-02T13:43:22.480Z,83.45
2023-02-02T13:46:19.669Z,82.59
2023-02-02T13:48:52.750Z,82.76
2023-02-02T13:51:40.981Z,82.46
2023-02-02T13:54:19.313Z,82.64
2023-02-02T13:57:10.440Z,82.37
2023-02-02T13:59:55.194Z,82.77
2023-02-02T14:02:26.556Z,82.28
2023-02-02T14:04:57.877Z,82.05
2023-02-02T14:07:45.236Z,81.56
2023-02-02T14:10:32.641Z,81.62
2023-02-02T14:13:34.214Z,82.21
2023-02-02T14:16:05.526Z,82.72
2023-02-02T14:18:50.198Z,82.92
2023-02-02T14:21:48.675Z,83.83
2023-02-02T14:24:27.562Z,84.12
2023-02-02T14:26:59.861Z,84.69
2023-02-02T14:29:32.294Z,84.79
2023-02-02T14:32:27.873Z,85.48
2023-02-02T14:35:09.959Z,85.84
2023-02-02T14:38:03.295Z,85.82
2023-02-02T14:40:38.740Z,86.80
2023-02-02T14:43:45.557Z,87.00
2023-02-02T14:46:14.964Z,86.92
2023-02-02T14:49:06.913Z,86.63
2023-02-02T14:51:45.953Z,87.10
2023-02-02T14:54:24.385Z,86.30
2023-02-02T14:56:55.114Z,87.03
2023-02-02T14:59:30.743Z,86.67
2023-02-02T15:02:15.372Z,87.05
2023-02-02T15:04:42.935Z,86.73
2023-02-02T15:07:24.659Z,86.69
2023-02-02T15:09:56.524Z,86.81
2023-02-02T15:12:35.815Z,86.96
2023-02-02T15:15:25.665Z,86.95
2023-02-02T15:18:12.603Z,86.25
2023-02-02T15:20:48.852Z,87.00
2023-02-02T15:23:27.466Z,87.49
2023-02-02T15:26:19.489Z,87.06
2023-02-02T15:28:53.083Z,87.65
2023-02-02T15:31:33.956Z,87.14
2023-02-02T15:34:04.957Z,87.05
2023-02-02T15:36:35.535Z,87.96
2023-02-02T15:39:10.539Z,87.12
2023-02-02T15:41:43.431Z,87.18
2023-02-02T15:44:20.920Z,86.40
2023-02-02T15:46:48.725Z,86.69
2023-02-02T15:49:35.432Z,87.02
2023-02-02T15:52:12.920Z,87.46
2023-02-02T15:54:49.431Z,87.02
2023-02-02T15:57:36.780Z,86.37
2023-02-02T16:00:30.969Z,85.98
2023-02-02T16:03:14.777Z,85.97
2023-02-02T16:06:04.020Z,85.69
2023-02-02T16:08:36.224Z,85.53
2023-02-02T16:11:13.182Z,85.49
2023-02-02T16:13:40.748Z,85.22
2023-02-02T16:16:22.269Z,84.88
2023-02-02T16:19:02.003Z,85.62
2023-02-02T16:21:29.578Z,85.54
2023-02-02T16:23:57.181Z,85.41
2023-02-02T16:26:27.755Z,85.78
2023-02-02T16:28:54.631Z,85.63
2023-02-02T16:31:21.584Z,86.80
2023-02-02T16:33:48.133Z,87.71
2023-02-02T16:36:24.389Z,86.98
2023-02-02T16:38:52.439Z,87.48
2023-02-02T16:41:29.370Z,87.96
2023-02-02T16:43:55.806Z,88.02
2023-02-02T16:46:45.565Z,87.33
2023-02-02T16:49:22.702Z,87.72
2023-02-02T16:52:08.827Z,88.07
2023-02-02T16:54:36.079Z,87.96
2023-02-02T16:57:04.107Z,87.16
2023-02-02T16:59:34.975Z,87.69
2023-02-02T17:02:05.336Z,87.21
2023-02-02T17:04:34.112Z,87.16
2023-02-02T17:07:14.656Z,86.52
2023-02-02T17:09:43.698Z,87.03
2023-02-02T17:12:32.034Z,87.32
2023-02-02T17:15:21.975Z,87.08
2023-02-02T17:17:49.490Z,86.85
2023-02-02T17:20:19.824Z,86.83
2023-02-02T17:23:09.760Z,86.98
2023-02-02T17:25:40.800Z,87.36
2023-02-02T17:28:11.305Z,87.24
2023-02-02T17:30:41.598Z,87.61
2023-02-02T17:33:14.834Z,87.44
2023-02-02T17:35:53.599Z,87.79
2023-02-02T17:38:22.513Z,88.33
2023-02-02T17:40:49.857Z,87.76
2023-02-02T17:43:16.480Z,87.58
2023-02-02T17:45:43.502Z,87.61
2023-02-02T17:48:12.208Z,87.56
2023-02-02T17:50:39.550Z,87.69
2023-02-02T17:53:06.096Z,87.96
2023-02-02T17:55:41.830Z,87.80
2023-02-02T17:58:10.365Z,88.39
2023-02-02T18:00:38.963Z,88.03
2023-02-02T18:03:18.511Z,88.60
2023-02-02T18:05:44.963Z,88.94
2023-02-02T18:08:12.757Z,88.70
2023-02-02T18:10:40.017Z,88.03
2023-02-02T18:13:06.643Z,87.84
2023-02-02T18:15:35.028Z,87.96
2023-02-02T18:18:02.140Z,87.79
2023-02-02T18:20:28.622Z,87.73
2023-02-02T18:22:55.048Z,87.91
2023-02-02T18:25:21.564Z,88.03
2023-02-02T18:27:50.593Z,87.40
2023-02-02T18:30:17.222Z,87.48
2023-02-02T18:32:44.013Z,88.24
2023-02-02T18:35:11.887Z,88.65
2023-02-02T18:37:39.322Z,88.39
2023-02-02T18:40:07.952Z,88.74
2023-02-02T18:42:35.444Z,88.71
2023-02-02T18:45:03.150Z,88.10
2023-02-02T18:47:29.696Z,88.55
2023-02-02T18:49:56.095Z,88.93
2023-02-02T18:52:22.869Z,88.41
2023-02-02T18:54:49.713Z,88.53
2023-02-02T18:57:16.516Z,88.22
2023-02-02T18:59:43.390Z,88.79
2023-02-02T19:02:14.640Z,88.53
2023-02-02T19:05:01.676Z,87.98
2023-02-02T19:07:46.672Z,88.36
2023-02-02T19:10:13.221Z,89.09
2023-02-02T19:12:39.831Z,88.70
2023-02-02T19:15:12.167Z,88.68
2023-02-02T19:17:39.456Z,89.25
2023-02-02T19:20:28.783Z,88.96
2023-02-02T19:23:01.735Z,89.90
2023-02-02T19:25:28.898Z,88.93
2023-02-02T19:27:55.519Z,89.30
2023-02-02T19:30:23.187Z,88.95
2023-02-02T19:32:49.798Z,90.06
2023-02-02T19:35:22.337Z,90.82
2023-02-02T19:37:54.867Z,89.93
2023-02-02T19:40:25.081Z,89.87
2023-02-02T19:42:57.007Z,89.56
2023-02-02T19:45:29.842Z,90.10
2023-02-02T19:47:58.247Z,90.32
2023-02-02T19:50:28.336Z,90.14
2023-02-02T19:52:55.818Z,89.44
2023-02-02T19:55:28.146Z,89.48
2023-02-02T19:58:01.390Z,90.07
2023-02-02T20:00:30.220Z,89.90
2023-02-02T20:02:57.792Z,89.51
2023-02-02T20:05:42.050Z,89.46
2023-02-02T20:08:23.962Z,90.38
2023-02-02T20:10:52.510Z,90.38
2023-02-02T20:13:25.575Z,90.22
2023-02-02T20:16:03.332Z,90.71
2023-02-02T20:18:44.400Z,91.47
2023-02-02T20:21:36.533Z,90.74
2023-02-02T20:24:03.282Z,90.95
2023-02-02T20:26:35.037Z,90.36
2023-02-02T20:29:33.103Z,90.21
2023-02-02T20:31:59.618Z,90.75
2023-02-02T20:34:35.788Z,91.07
2023-02-02T20:37:15.738Z,91.39
2023-02-02T20:40:06.497Z,90.48
2023-02-02T20:42:33.033Z,91.45
2023-02-02T20:44:59.482Z,91.26
2023-02-02T20:47:25.979Z,90.78
2023-02-02T20:49:52.404Z,90.46
2023-02-02T20:52:23.974Z,91.30
2023-02-02T20:54:51.790Z,91.23
2023-02-02T20:57:18.725Z,91.06
2023-02-02T20:59:45.225Z,90.99
2023-02-02T21:02:19.285Z,91.17
2023-02-02T21:04:49.791Z,91.47
2023-02-02T21:07:17.663Z,91.84
2023-02-02T21:09:44.848Z,91.83
2023-02-02T21:12:11.621Z,91.79
2023-02-02T21:14:38.911Z,91.40
2023-02-02T21:17:14.856Z,91.91
2023-02-02T21:19:42.940Z,91.66
2023-02-02T21:22:09.794Z,91.59
2023-02-02T21:24:36.255Z,92.02
2023-02-02T21:27:04.384Z,93.17
2023-02-02T21:29:31.726Z,93.62
2023-02-02T21:32:01.337Z,93.16
2023-02-02T21:34:29.050Z,92.72
2023-02-02T21:36:58.135Z,92.13
2023-02-02T21:39:32.226Z,92.84
2023-02-02T21:42:20.194Z,92.36
2023-02-02T21:45:07.210Z,92.38
2023-02-02T21:47:53.819Z,92.70
2023-02-02T21:50:40.000Z,94.23
2023-02-02T21:53:20.203Z,93.74
2023-02-02T21:55:55.741Z,94.33
2023-02-02T21:58:27.546Z,94.46
2023-02-02T22:00:59.483Z,94.54
2023-02-02T22:03:30.927Z,94.35
2023-02-02T22:06:20.715Z,95.03
2023-02-02T22:08:48.501Z,94.91
2023-02-02T22:11:30.995Z,95.01
2023-02-02T22:14:11.594Z,95.21
2023-02-02T22:16:43.468Z,94.82
2023-02-02T22:19:38.908Z,94.78
2023-02-02T22:22:08.361Z,96.02
2023-02-02T22:24:36.095Z,95.51
2023-02-02T22:27:02.819Z,95.65
2023-02-02T22:29:34.079Z,96.46
2023-02-02T22:32:00.782Z,96.65
2023-02-02T22:34:27.236Z,96.32
2023-02-02T22:36:53.660Z,96.72
2023-02-02T22:39:20.087Z,96.32
2023-02-02T22:41:46.462Z,96.59
2023-02-02T22:44:12.900Z,97.42
2023-02-02T22:46:39.376Z,97.58
2023-02-02T22:49:05.842Z,97.46
2023-02-02T22:51:32.283Z,96.92
2023-02-02T22:53:58.731Z,97.97
2023-02-02T22:56:26.094Z,97.74
2023-02-02T22:58:52.509Z,98.07
2023-02-02T23:01:18.995Z,98.18
2023-02-02T23:03:47.476Z,98.08
2023-02-02T23:06:13.940Z,98.64
2023-02-02T23:08:40.429Z,97.81
2023-02-02T23:11:07.014Z,97.71
2023-02-02T23:13:33.498Z,97.62
2023-02-02T23:15:59.945Z,98.22
2023-02-02T23:18:26.376Z,98.51
2023-02-02T23:20:52.803Z,97.90
2023-02-02T23:23:19.210Z,98.88
2023-02-02T23:25:45.628Z,98.51
2023-02-02T23:28:13.150Z,99.81
2023-02-02T23:30:39.728Z,100.00
2023-02-02T23:33:06.239Z,100.00
2023-02-02T23:35:32.755Z,100.00
2023-02-02T23:37:59.260Z,99.95
2023-02-02T23:40:26.002Z,99.88
2023-02-02T23:42:52.648Z,99.18
2023-02-02T23:45:19.239Z,100.00
2023-02-02T23:47:45.878Z,99.21
2023-02-02T23:50:12.974Z,99.03
2023-02-02T23:52:39.896Z,98.78
2023-02-02T23:55:07.644Z,100.00
2023-02-02T23:57:36.445Z,99.83
